sensor_id;sensor_type;location;lat;lon;timestamp;P1;durP1;ratioP1;P2;durP2;ratioP2
68126;SDS011;54931;52.098;21.006;2022-08-11T00:01:26;10.00;;;4.20;;
68126;SDS011;54931;52.098;21.006;2022-08-11T00:03:57;9.50;;;4.20;;
68126;SDS011;54931;52.098;21.006;2022-08-11T00:06:34;6.50;;;3.80;;
68126;SDS011;54931;52.098;21.006;2022-08-11T00:09:04;9.30;;;4.20;;
68126;SDS011;54931;52.098;21.006;2022-08-11T00:11:41;7.60;;;3.90;;
68126;SDS011;54931;52.098;21.006;2022-08-11T00:14:18;11.60;;;4.30;;
68126;SDS011;54931;52.098;21.006;2022-08-11T00:17:03;7.00;;;4.20;;
68126;SDS011;54931;52.098;21.006;2022-08-11T00:19:45;10.30;;;4.10;;
68126;SDS011;54931;52.098;21.006;2022-08-11T00:22:20;9.60;;;3.90;;
68126;SDS011;54931;52.098;21.006;2022-08-11T00:24:49;11.80;;;3.90;;
68126;SDS011;54931;52.098;21.006;2022-08-11T00:27:17;7.70;;;4.30;;
68126;SDS011;54931;52.098;21.006;2022-08-11T00:29:54;9.60;;;4.20;;
68126;SDS011;54931;52.098;21.006;2022-08-11T00:32:21;8.20;;;3.90;;
68126;SDS011;54931;52.098;21.006;2022-08-11T00:34:49;6.80;;;3.90;;
68126;SDS011;54931;52.098;21.006;2022-08-11T00:37:20;14.00;;;4.20;;
68126;SDS011;54931;52.098;21.006;2022-08-11T00:39:50;7.90;;;3.90;;
68126;SDS011;54931;52.098;21.006;2022-08-11T00:45:39;8.80;;;4.00;;
68126;SDS011;54931;52.098;21.006;2022-08-11T00:48:28;7.70;;;4.00;;
68126;SDS011;54931;52.098;21.006;2022-08-11T01:29:34;7.40;;;4.00;;
68126;SDS011;54931;52.098;21.006;2022-08-11T01:41:31;7.00;;;4.40;;
68126;SDS011;54931;52.098;21.006;2022-08-11T01:59:08;11.10;;;5.60;;
68126;SDS011;54931;52.098;21.006;2022-08-11T02:08:23;7.20;;;4.00;;
68126;SDS011;54931;52.098;21.006;2022-08-11T02:14:10;6.30;;;3.90;;
68126;SDS011;54931;52.098;21.006;2022-08-11T02:26:42;9.90;;;4.20;;
68126;SDS011;54931;52.098;21.006;2022-08-11T02:29:34;6.80;;;4.00;;
68126;SDS011;54931;52.098;21.006;2022-08-11T02:36:54;7.10;;;4.30;;
68126;SDS011;54931;52.098;21.006;2022-08-11T02:39:30;7.00;;;4.10;;
68126;SDS011;54931;52.098;21.006;2022-08-11T02:42:49;7.00;;;4.10;;
68126;SDS011;54931;52.098;21.006;2022-08-11T02:48:17;8.20;;;4.00;;
68126;SDS011;54931;52.098;21.006;2022-08-11T02:51:18;8.70;;;4.20;;
68126;SDS011;54931;52.098;21.006;2022-08-11T02:59:25;8.80;;;4.00;;
68126;SDS011;54931;52.098;21.006;2022-08-11T03:10:20;6.10;;;4.00;;
68126;SDS011;54931;52.098;21.006;2022-08-11T03:16:17;9.40;;;4.10;;
68126;SDS011;54931;52.098;21.006;2022-08-11T03:19:21;6.90;;;4.40;;
68126;SDS011;54931;52.098;21.006;2022-08-11T03:22:23;7.30;;;4.50;;
68126;SDS011;54931;52.098;21.006;2022-08-11T03:27:41;8.00;;;4.00;;
68126;SDS011;54931;52.098;21.006;2022-08-11T03:35:39;8.70;;;4.20;;
68126;SDS011;54931;52.098;21.006;2022-08-11T03:38:14;8.80;;;4.20;;
68126;SDS011;54931;52.098;21.006;2022-08-11T03:41:02;8.20;;;4.30;;
68126;SDS011;54931;52.098;21.006;2022-08-11T04:23:24;8.30;;;4.30;;
68126;SDS011;54931;52.098;21.006;2022-08-11T04:26:46;11.20;;;4.10;;
68126;SDS011;54931;52.098;21.006;2022-08-11T04:29:51;10.80;;;4.20;;
68126;SDS011;54931;52.098;21.006;2022-08-11T04:35:38;7.00;;;3.80;;
68126;SDS011;54931;52.098;21.006;2022-08-11T04:38:41;11.50;;;3.60;;
68126;SDS011;54931;52.098;21.006;2022-08-11T04:48:04;8.10;;;3.80;;
68126;SDS011;54931;52.098;21.006;2022-08-11T05:11:49;5.60;;;3.10;;
68126;SDS011;54931;52.098;21.006;2022-08-11T05:14:35;6.60;;;3.30;;
68126;SDS011;54931;52.098;21.006;2022-08-11T05:17:38;7.50;;;3.20;;
68126;SDS011;54931;52.098;21.006;2022-08-11T05:20:52;5.70;;;2.80;;
68126;SDS011;54931;52.098;21.006;2022-08-11T05:23:46;7.60;;;2.90;;
68126;SDS011;54931;52.098;21.006;2022-08-11T05:32:33;6.10;;;3.00;;
68126;SDS011;54931;52.098;21.006;2022-08-11T05:35:37;5.10;;;2.90;;
68126;SDS011;54931;52.098;21.006;2022-08-11T05:38:24;6.70;;;3.00;;
68126;SDS011;54931;52.098;21.006;2022-08-11T05:41:13;6.50;;;3.20;;
68126;SDS011;54931;52.098;21.006;2022-08-11T05:44:01;5.70;;;2.50;;
68126;SDS011;54931;52.098;21.006;2022-08-11T05:46:49;7.30;;;3.00;;
68126;SDS011;54931;52.098;21.006;2022-08-11T05:52:24;4.90;;;2.90;;
68126;SDS011;54931;52.098;21.006;2022-08-11T05:55:14;7.30;;;2.60;;
68126;SDS011;54931;52.098;21.006;2022-08-11T05:58:07;6.80;;;3.40;;
68126;SDS011;54931;52.098;21.006;2022-08-11T06:03:29;3.60;;;2.50;;
68126;SDS011;54931;52.098;21.006;2022-08-11T06:06:20;3.50;;;2.20;;
68126;SDS011;54931;52.098;21.006;2022-08-11T06:08:49;6.40;;;2.70;;
68126;SDS011;54931;52.098;21.006;2022-08-11T06:11:22;3.50;;;2.10;;
68126;SDS011;54931;52.098;21.006;2022-08-11T06:13:52;4.60;;;2.30;;
68126;SDS011;54931;52.098;21.006;2022-08-11T06:16:22;5.40;;;2.30;;
68126;SDS011;54931;52.098;21.006;2022-08-11T06:18:54;3.90;;;2.20;;
68126;SDS011;54931;52.098;21.006;2022-08-11T06:21:22;6.20;;;2.50;;
68126;SDS011;54931;52.098;21.006;2022-08-11T06:23:50;3.50;;;2.10;;
68126;SDS011;54931;52.098;21.006;2022-08-11T06:26:18;6.80;;;2.10;;
68126;SDS011;54931;52.098;21.006;2022-08-11T06:28:47;3.50;;;2.00;;
68126;SDS011;54931;52.098;21.006;2022-08-11T06:31:20;5.60;;;2.10;;
68126;SDS011;54931;52.098;21.006;2022-08-11T06:36:38;3.60;;;2.20;;
68126;SDS011;54931;52.098;21.006;2022-08-11T06:42:35;6.00;;;2.10;;
68126;SDS011;54931;52.098;21.006;2022-08-11T06:47:52;4.50;;;2.10;;
68126;SDS011;54931;52.098;21.006;2022-08-11T06:50:22;5.00;;;2.00;;
68126;SDS011;54931;52.098;21.006;2022-08-11T06:53:08;4.60;;;2.20;;
68126;SDS011;54931;52.098;21.006;2022-08-11T06:55:40;6.90;;;2.10;;
68126;SDS011;54931;52.098;21.006;2022-08-11T06:58:39;4.40;;;2.20;;
68126;SDS011;54931;52.098;21.006;2022-08-11T07:01:37;2.50;;;1.60;;
68126;SDS011;54931;52.098;21.006;2022-08-11T07:04:22;2.00;;;1.60;;
68126;SDS011;54931;52.098;21.006;2022-08-11T07:07:11;3.00;;;1.70;;
68126;SDS011;54931;52.098;21.006;2022-08-11T07:13:58;3.50;;;1.60;;
68126;SDS011;54931;52.098;21.006;2022-08-11T07:16:49;4.30;;;1.70;;
68126;SDS011;54931;52.098;21.006;2022-08-11T07:19:24;3.00;;;1.90;;
68126;SDS011;54931;52.098;21.006;2022-08-11T07:22:13;4.60;;;2.00;;
68126;SDS011;54931;52.098;21.006;2022-08-11T07:25:03;3.40;;;1.70;;
68126;SDS011;54931;52.098;21.006;2022-08-11T07:28:00;3.70;;;1.70;;
68126;SDS011;54931;52.098;21.006;2022-08-11T07:31:00;4.50;;;1.80;;
68126;SDS011;54931;52.098;21.006;2022-08-11T07:36:56;3.30;;;1.60;;
68126;SDS011;54931;52.098;21.006;2022-08-11T07:39:29;2.40;;;1.40;;
68126;SDS011;54931;52.098;21.006;2022-08-11T07:42:08;4.70;;;1.60;;
68126;SDS011;54931;52.098;21.006;2022-08-11T07:44:41;2.50;;;1.30;;
68126;SDS011;54931;52.098;21.006;2022-08-11T07:47:28;4.40;;;1.50;;
68126;SDS011;54931;52.098;21.006;2022-08-11T07:50:16;3.00;;;1.40;;
68126;SDS011;54931;52.098;21.006;2022-08-11T07:55:31;4.00;;;1.40;;
68126;SDS011;54931;52.098;21.006;2022-08-11T07:58:00;4.60;;;1.50;;
68126;SDS011;54931;52.098;21.006;2022-08-11T08:00:55;3.30;;;1.30;;
68126;SDS011;54931;52.098;21.006;2022-08-11T08:03:43;1.90;;;1.30;;
68126;SDS011;54931;52.098;21.006;2022-08-11T08:06:32;3.10;;;1.30;;
68126;SDS011;54931;52.098;21.006;2022-08-11T08:09:20;1.90;;;1.20;;
68126;SDS011;54931;52.098;21.006;2022-08-11T08:12:07;3.80;;;1.70;;
68126;SDS011;54931;52.098;21.006;2022-08-11T08:14:54;1.90;;;1.40;;
68126;SDS011;54931;52.098;21.006;2022-08-11T08:17:43;2.60;;;1.50;;
68126;SDS011;54931;52.098;21.006;2022-08-11T08:20:58;1.90;;;1.30;;
68126;SDS011;54931;52.098;21.006;2022-08-11T08:23:25;2.50;;;1.30;;
68126;SDS011;54931;52.098;21.006;2022-08-11T08:26:02;2.40;;;1.20;;
68126;SDS011;54931;52.098;21.006;2022-08-11T08:28:54;3.00;;;1.30;;
68126;SDS011;54931;52.098;21.006;2022-08-11T08:31:43;2.90;;;1.30;;
68126;SDS011;54931;52.098;21.006;2022-08-11T08:34:13;3.50;;;1.20;;
68126;SDS011;54931;52.098;21.006;2022-08-11T08:36:47;3.10;;;1.00;;
68126;SDS011;54931;52.098;21.006;2022-08-11T08:39:20;1.90;;;1.20;;
68126;SDS011;54931;52.098;21.006;2022-08-11T08:41:52;3.30;;;1.10;;
68126;SDS011;54931;52.098;21.006;2022-08-11T08:44:22;3.50;;;1.10;;
68126;SDS011;54931;52.098;21.006;2022-08-11T08:46:54;2.70;;;1.10;;
68126;SDS011;54931;52.098;21.006;2022-08-11T08:49:32;1.80;;;1.10;;
68126;SDS011;54931;52.098;21.006;2022-08-11T08:52:04;4.50;;;1.20;;
68126;SDS011;54931;52.098;21.006;2022-08-11T08:54:36;1.80;;;1.20;;
68126;SDS011;54931;52.098;21.006;2022-08-11T08:57:07;2.30;;;1.30;;
68126;SDS011;54931;52.098;21.006;2022-08-11T08:59:40;4.30;;;1.10;;
68126;SDS011;54931;52.098;21.006;2022-08-11T09:02:10;2.00;;;1.10;;
68126;SDS011;54931;52.098;21.006;2022-08-11T09:04:39;2.20;;;1.20;;
68126;SDS011;54931;52.098;21.006;2022-08-11T09:07:16;2.50;;;1.10;;
68126;SDS011;54931;52.098;21.006;2022-08-11T09:09:48;2.60;;;1.00;;
68126;SDS011;54931;52.098;21.006;2022-08-11T09:12:19;3.50;;;1.00;;
68126;SDS011;54931;52.098;21.006;2022-08-11T09:14:49;1.90;;;1.20;;
68126;SDS011;54931;52.098;21.006;2022-08-11T09:20:22;4.50;;;1.30;;
68126;SDS011;54931;52.098;21.006;2022-08-11T09:22:56;1.70;;;1.10;;
68126;SDS011;54931;52.098;21.006;2022-08-11T09:25:44;3.00;;;1.10;;
68126;SDS011;54931;52.098;21.006;2022-08-11T09:28:31;2.20;;;1.10;;
68126;SDS011;54931;52.098;21.006;2022-08-11T09:31:01;1.70;;;1.30;;
68126;SDS011;54931;52.098;21.006;2022-08-11T09:33:29;2.40;;;1.40;;
68126;SDS011;54931;52.098;21.006;2022-08-11T09:35:59;1.30;;;1.10;;
68126;SDS011;54931;52.098;21.006;2022-08-11T09:38:51;2.00;;;1.20;;
68126;SDS011;54931;52.098;21.006;2022-08-11T09:41:38;1.50;;;1.10;;
68126;SDS011;54931;52.098;21.006;2022-08-11T09:44:08;3.70;;;1.30;;
68126;SDS011;54931;52.098;21.006;2022-08-11T09:46:56;2.20;;;1.30;;
68126;SDS011;54931;52.098;21.006;2022-08-11T09:49:25;1.80;;;1.20;;
68126;SDS011;54931;52.098;21.006;2022-08-11T09:51:55;2.20;;;0.90;;
68126;SDS011;54931;52.098;21.006;2022-08-11T09:54:24;3.00;;;1.20;;
68126;SDS011;54931;52.098;21.006;2022-08-11T09:56:54;1.20;;;1.10;;
68126;SDS011;54931;52.098;21.006;2022-08-11T09:59:40;1.90;;;1.40;;
68126;SDS011;54931;52.098;21.006;2022-08-11T10:02:08;1.50;;;1.10;;
68126;SDS011;54931;52.098;21.006;2022-08-11T10:04:43;2.70;;;1.20;;
68126;SDS011;54931;52.098;21.006;2022-08-11T10:07:14;1.50;;;1.30;;
68126;SDS011;54931;52.098;21.006;2022-08-11T10:09:51;2.70;;;1.10;;
68126;SDS011;54931;52.098;21.006;2022-08-11T10:12:31;1.70;;;1.30;;
68126;SDS011;54931;52.098;21.006;2022-08-11T10:17:57;1.40;;;1.00;;
68126;SDS011;54931;52.098;21.006;2022-08-11T10:20:50;2.30;;;1.20;;
68126;SDS011;54931;52.098;21.006;2022-08-11T10:23:21;2.10;;;1.30;;
68126;SDS011;54931;52.098;21.006;2022-08-11T10:26:08;2.90;;;1.20;;
68126;SDS011;54931;52.098;21.006;2022-08-11T10:28:54;2.30;;;1.10;;
68126;SDS011;54931;52.098;21.006;2022-08-11T10:31:22;2.30;;;1.10;;
68126;SDS011;54931;52.098;21.006;2022-08-11T10:34:09;3.30;;;1.10;;
68126;SDS011;54931;52.098;21.006;2022-08-11T10:36:41;1.80;;;1.00;;
68126;SDS011;54931;52.098;21.006;2022-08-11T10:39:17;2.10;;;1.20;;
68126;SDS011;54931;52.098;21.006;2022-08-11T10:41:47;1.60;;;1.00;;
68126;SDS011;54931;52.098;21.006;2022-08-11T10:44:43;1.80;;;1.40;;
68126;SDS011;54931;52.098;21.006;2022-08-11T10:47:17;1.80;;;1.10;;
68126;SDS011;54931;52.098;21.006;2022-08-11T10:50:09;1.90;;;1.40;;
68126;SDS011;54931;52.098;21.006;2022-08-11T10:52:58;2.70;;;1.30;;
68126;SDS011;54931;52.098;21.006;2022-08-11T10:55:46;2.50;;;1.20;;
68126;SDS011;54931;52.098;21.006;2022-08-11T10:58:35;2.40;;;1.30;;
68126;SDS011;54931;52.098;21.006;2022-08-11T11:04:01;3.70;;;1.40;;
68126;SDS011;54931;52.098;21.006;2022-08-11T11:07:09;2.90;;;1.20;;
68126;SDS011;54931;52.098;21.006;2022-08-11T11:09:52;1.60;;;1.10;;
68126;SDS011;54931;52.098;21.006;2022-08-11T11:12:30;3.20;;;1.20;;
68126;SDS011;54931;52.098;21.006;2022-08-11T11:15:28;2.20;;;1.20;;
68126;SDS011;54931;52.098;21.006;2022-08-11T11:18:27;1.50;;;1.30;;
68126;SDS011;54931;52.098;21.006;2022-08-11T11:21:10;2.70;;;1.30;;
68126;SDS011;54931;52.098;21.006;2022-08-11T11:26:42;2.30;;;1.20;;
68126;SDS011;54931;52.098;21.006;2022-08-11T11:32:40;2.60;;;1.40;;
68126;SDS011;54931;52.098;21.006;2022-08-11T11:38:10;1.40;;;1.20;;
68126;SDS011;54931;52.098;21.006;2022-08-11T11:40:39;4.30;;;1.30;;
68126;SDS011;54931;52.098;21.006;2022-08-11T11:43:08;1.90;;;1.30;;
68126;SDS011;54931;52.098;21.006;2022-08-11T11:45:39;2.40;;;1.20;;
68126;SDS011;54931;52.098;21.006;2022-08-11T11:48:08;4.90;;;1.30;;
68126;SDS011;54931;52.098;21.006;2022-08-11T11:50:38;1.80;;;1.20;;
68126;SDS011;54931;52.098;21.006;2022-08-11T11:53:07;2.40;;;1.10;;
68126;SDS011;54931;52.098;21.006;2022-08-11T11:55:36;2.30;;;1.30;;
68126;SDS011;54931;52.098;21.006;2022-08-11T11:58:05;5.10;;;1.40;;
68126;SDS011;54931;52.098;21.006;2022-08-11T12:00:52;1.40;;;1.10;;
68126;SDS011;54931;52.098;21.006;2022-08-11T12:03:40;1.90;;;1.30;;
68126;SDS011;54931;52.098;21.006;2022-08-11T12:06:11;2.00;;;1.20;;
68126;SDS011;54931;52.098;21.006;2022-08-11T12:08:41;2.10;;;1.20;;
68126;SDS011;54931;52.098;21.006;2022-08-11T12:11:11;3.00;;;1.10;;
68126;SDS011;54931;52.098;21.006;2022-08-11T12:14:02;2.50;;;1.30;;
68126;SDS011;54931;52.098;21.006;2022-08-11T12:16:34;3.70;;;1.50;;
68126;SDS011;54931;52.098;21.006;2022-08-11T12:19:06;2.60;;;1.30;;
68126;SDS011;54931;52.098;21.006;2022-08-11T12:21:40;1.50;;;1.20;;
68126;SDS011;54931;52.098;21.006;2022-08-11T12:24:28;1.90;;;1.30;;
68126;SDS011;54931;52.098;21.006;2022-08-11T12:27:17;3.00;;;1.40;;
68126;SDS011;54931;52.098;21.006;2022-08-11T12:29:54;3.70;;;1.30;;
68126;SDS011;54931;52.098;21.006;2022-08-11T12:32:27;3.10;;;1.20;;
68126;SDS011;54931;52.098;21.006;2022-08-11T12:34:58;1.50;;;1.10;;
68126;SDS011;54931;52.098;21.006;2022-08-11T12:37:44;2.50;;;1.10;;
68126;SDS011;54931;52.098;21.006;2022-08-11T12:40:30;3.00;;;1.30;;
68126;SDS011;54931;52.098;21.006;2022-08-11T12:43:19;2.00;;;1.30;;
68126;SDS011;54931;52.098;21.006;2022-08-11T12:46:12;3.10;;;1.10;;
68126;SDS011;54931;52.098;21.006;2022-08-11T12:48:57;4.20;;;1.30;;
68126;SDS011;54931;52.098;21.006;2022-08-11T12:51:51;1.60;;;1.20;;
68126;SDS011;54931;52.098;21.006;2022-08-11T12:54:34;2.10;;;1.20;;
68126;SDS011;54931;52.098;21.006;2022-08-11T12:57:13;1.50;;;1.20;;
68126;SDS011;54931;52.098;21.006;2022-08-11T13:00:00;2.10;;;1.20;;
68126;SDS011;54931;52.098;21.006;2022-08-11T13:02:47;1.80;;;1.20;;
68126;SDS011;54931;52.098;21.006;2022-08-11T13:05:34;2.10;;;1.40;;
68126;SDS011;54931;52.098;21.006;2022-08-11T13:08:03;2.60;;;1.30;;
68126;SDS011;54931;52.098;21.006;2022-08-11T13:10:33;1.60;;;1.20;;
68126;SDS011;54931;52.098;21.006;2022-08-11T13:13:19;3.90;;;1.30;;
68126;SDS011;54931;52.098;21.006;2022-08-11T13:15:48;9.20;;;1.40;;
68126;SDS011;54931;52.098;21.006;2022-08-11T13:18:21;7.40;;;1.60;;
68126;SDS011;54931;52.098;21.006;2022-08-11T13:20:56;4.30;;;1.40;;
68126;SDS011;54931;52.098;21.006;2022-08-11T13:23:25;8.30;;;1.80;;
68126;SDS011;54931;52.098;21.006;2022-08-11T13:25:55;5.40;;;1.70;;
68126;SDS011;54931;52.098;21.006;2022-08-11T13:28:24;4.60;;;1.60;;
68126;SDS011;54931;52.098;21.006;2022-08-11T13:30:52;4.30;;;1.80;;
68126;SDS011;54931;52.098;21.006;2022-08-11T13:33:43;2.80;;;1.80;;
68126;SDS011;54931;52.098;21.006;2022-08-11T13:36:23;2.00;;;1.70;;
68126;SDS011;54931;52.098;21.006;2022-08-11T13:38:55;4.20;;;1.70;;
68126;SDS011;54931;52.098;21.006;2022-08-11T13:41:25;3.30;;;1.80;;
68126;SDS011;54931;52.098;21.006;2022-08-11T13:44:09;2.80;;;1.60;;
68126;SDS011;54931;52.098;21.006;2022-08-11T13:46:39;3.10;;;1.60;;
68126;SDS011;54931;52.098;21.006;2022-08-11T13:49:10;2.70;;;1.60;;
68126;SDS011;54931;52.098;21.006;2022-08-11T13:51:42;2.60;;;1.60;;
68126;SDS011;54931;52.098;21.006;2022-08-11T13:54:26;4.70;;;1.80;;
68126;SDS011;54931;52.098;21.006;2022-08-11T13:57:02;5.00;;;1.60;;
68126;SDS011;54931;52.098;21.006;2022-08-11T13:59:33;2.30;;;1.60;;
68126;SDS011;54931;52.098;21.006;2022-08-11T14:02:04;4.40;;;1.60;;
68126;SDS011;54931;52.098;21.006;2022-08-11T14:04:44;5.00;;;1.60;;
68126;SDS011;54931;52.098;21.006;2022-08-11T14:07:20;4.70;;;1.40;;
68126;SDS011;54931;52.098;21.006;2022-08-11T14:09:55;1.80;;;1.30;;
68126;SDS011;54931;52.098;21.006;2022-08-11T14:12:30;6.20;;;1.60;;
68126;SDS011;54931;52.098;21.006;2022-08-11T14:15:21;1.70;;;1.20;;
68126;SDS011;54931;52.098;21.006;2022-08-11T14:17:55;3.30;;;1.40;;
68126;SDS011;54931;52.098;21.006;2022-08-11T14:20:31;1.60;;;1.50;;
68126;SDS011;54931;52.098;21.006;2022-08-11T14:23:28;1.50;;;1.10;;
68126;SDS011;54931;52.098;21.006;2022-08-11T14:26:00;3.10;;;1.20;;
68126;SDS011;54931;52.098;21.006;2022-08-11T14:28:48;2.30;;;1.20;;
68126;SDS011;54931;52.098;21.006;2022-08-11T14:31:27;3.50;;;1.40;;
68126;SDS011;54931;52.098;21.006;2022-08-11T14:34:02;4.70;;;1.60;;
68126;SDS011;54931;52.098;21.006;2022-08-11T14:36:37;2.20;;;1.20;;
68126;SDS011;54931;52.098;21.006;2022-08-11T14:39:12;1.90;;;1.20;;
68126;SDS011;54931;52.098;21.006;2022-08-11T14:44:34;4.20;;;1.40;;
68126;SDS011;54931;52.098;21.006;2022-08-11T14:47:23;2.20;;;1.40;;
68126;SDS011;54931;52.098;21.006;2022-08-11T14:49:53;3.50;;;1.30;;
68126;SDS011;54931;52.098;21.006;2022-08-11T14:52:23;4.90;;;1.30;;
68126;SDS011;54931;52.098;21.006;2022-08-11T14:54:53;3.50;;;1.50;;
68126;SDS011;54931;52.098;21.006;2022-08-11T14:57:40;1.40;;;1.30;;
68126;SDS011;54931;52.098;21.006;2022-08-11T15:00:12;1.90;;;1.30;;
68126;SDS011;54931;52.098;21.006;2022-08-11T15:02:47;1.90;;;1.30;;
68126;SDS011;54931;52.098;21.006;2022-08-11T15:05:35;3.30;;;1.70;;
68126;SDS011;54931;52.098;21.006;2022-08-11T15:08:07;2.50;;;1.30;;
68126;SDS011;54931;52.098;21.006;2022-08-11T15:10:36;3.20;;;1.40;;
68126;SDS011;54931;52.098;21.006;2022-08-11T15:13:04;2.40;;;1.10;;
68126;SDS011;54931;52.098;21.006;2022-08-11T15:15:33;3.60;;;1.50;;
68126;SDS011;54931;52.098;21.006;2022-08-11T15:18:21;3.00;;;1.50;;
68126;SDS011;54931;52.098;21.006;2022-08-11T15:20:51;4.70;;;1.70;;
68126;SDS011;54931;52.098;21.006;2022-08-11T15:23:39;3.90;;;1.30;;
68126;SDS011;54931;52.098;21.006;2022-08-11T15:26:39;3.60;;;1.40;;
68126;SDS011;54931;52.098;21.006;2022-08-11T15:29:29;6.90;;;1.40;;
68126;SDS011;54931;52.098;21.006;2022-08-11T15:32:20;5.50;;;1.30;;
68126;SDS011;54931;52.098;21.006;2022-08-11T15:35:10;3.60;;;1.10;;
68126;SDS011;54931;52.098;21.006;2022-08-11T15:38:00;3.10;;;1.40;;
68126;SDS011;54931;52.098;21.006;2022-08-11T15:40:34;3.50;;;1.20;;
68126;SDS011;54931;52.098;21.006;2022-08-11T15:43:48;1.80;;;1.20;;
68126;SDS011;54931;52.098;21.006;2022-08-11T15:46:43;3.60;;;1.20;;
68126;SDS011;54931;52.098;21.006;2022-08-11T15:49:28;4.30;;;1.70;;
68126;SDS011;54931;52.098;21.006;2022-08-11T15:52:02;4.80;;;1.50;;
68126;SDS011;54931;52.098;21.006;2022-08-11T15:54:32;5.60;;;1.40;;
68126;SDS011;54931;52.098;21.006;2022-08-11T15:57:04;3.40;;;1.40;;
68126;SDS011;54931;52.098;21.006;2022-08-11T15:59:36;4.50;;;1.30;;
68126;SDS011;54931;52.098;21.006;2022-08-11T16:02:24;6.40;;;1.60;;
68126;SDS011;54931;52.098;21.006;2022-08-11T16:05:07;3.60;;;1.40;;
68126;SDS011;54931;52.098;21.006;2022-08-11T16:07:40;3.50;;;1.40;;
68126;SDS011;54931;52.098;21.006;2022-08-11T16:10:14;2.20;;;1.20;;
68126;SDS011;54931;52.098;21.006;2022-08-11T16:12:49;3.60;;;1.30;;
68126;SDS011;54931;52.098;21.006;2022-08-11T16:15:34;7.10;;;1.50;;
68126;SDS011;54931;52.098;21.006;2022-08-11T16:18:30;2.80;;;1.40;;
68126;SDS011;54931;52.098;21.006;2022-08-11T16:21:10;4.30;;;1.20;;
68126;SDS011;54931;52.098;21.006;2022-08-11T16:23:42;3.00;;;1.20;;
68126;SDS011;54931;52.098;21.006;2022-08-11T16:26:16;4.80;;;1.30;;
68126;SDS011;54931;52.098;21.006;2022-08-11T16:28:52;4.40;;;1.40;;
68126;SDS011;54931;52.098;21.006;2022-08-11T16:31:23;1.80;;;1.20;;
68126;SDS011;54931;52.098;21.006;2022-08-11T16:33:52;2.20;;;1.10;;
68126;SDS011;54931;52.098;21.006;2022-08-11T16:36:23;4.00;;;1.20;;
68126;SDS011;54931;52.098;21.006;2022-08-11T16:39:12;3.20;;;1.10;;
68126;SDS011;54931;52.098;21.006;2022-08-11T16:41:44;3.60;;;1.20;;
68126;SDS011;54931;52.098;21.006;2022-08-11T16:44:33;1.90;;;1.20;;
68126;SDS011;54931;52.098;21.006;2022-08-11T16:47:21;2.50;;;1.40;;
68126;SDS011;54931;52.098;21.006;2022-08-11T16:49:53;2.90;;;1.20;;
68126;SDS011;54931;52.098;21.006;2022-08-11T16:52:23;3.50;;;1.30;;
68126;SDS011;54931;52.098;21.006;2022-08-11T16:54:51;3.90;;;1.20;;
68126;SDS011;54931;52.098;21.006;2022-08-11T16:57:25;3.40;;;1.10;;
68126;SDS011;54931;52.098;21.006;2022-08-11T17:00:14;3.10;;;1.50;;
68126;SDS011;54931;52.098;21.006;2022-08-11T17:02:49;3.50;;;1.30;;
68126;SDS011;54931;52.098;21.006;2022-08-11T17:05:43;3.60;;;1.10;;
68126;SDS011;54931;52.098;21.006;2022-08-11T17:08:47;4.10;;;1.20;;
68126;SDS011;54931;52.098;21.006;2022-08-11T17:11:51;4.30;;;1.40;;
68126;SDS011;54931;52.098;21.006;2022-08-11T17:14:44;2.50;;;1.40;;
68126;SDS011;54931;52.098;21.006;2022-08-11T17:17:25;3.50;;;1.30;;
68126;SDS011;54931;52.098;21.006;2022-08-11T17:22:36;2.80;;;1.20;;
68126;SDS011;54931;52.098;21.006;2022-08-11T17:25:25;3.50;;;1.50;;
68126;SDS011;54931;52.098;21.006;2022-08-11T17:28:02;5.10;;;1.50;;
68126;SDS011;54931;52.098;21.006;2022-08-11T17:30:31;3.10;;;1.40;;
68126;SDS011;54931;52.098;21.006;2022-08-11T17:33:20;3.10;;;1.30;;
68126;SDS011;54931;52.098;21.006;2022-08-11T17:36:09;5.10;;;1.40;;
68126;SDS011;54931;52.098;21.006;2022-08-11T17:38:39;2.90;;;1.30;;
68126;SDS011;54931;52.098;21.006;2022-08-11T17:41:09;5.20;;;1.50;;
68126;SDS011;54931;52.098;21.006;2022-08-11T17:43:56;3.30;;;1.30;;
68126;SDS011;54931;52.098;21.006;2022-08-11T17:46:45;3.10;;;1.50;;
68126;SDS011;54931;52.098;21.006;2022-08-11T17:49:35;3.10;;;1.50;;
68126;SDS011;54931;52.098;21.006;2022-08-11T17:52:06;5.00;;;1.50;;
68126;SDS011;54931;52.098;21.006;2022-08-11T17:54:54;3.40;;;1.60;;
68126;SDS011;54931;52.098;21.006;2022-08-11T17:57:43;6.70;;;1.70;;
68126;SDS011;54931;52.098;21.006;2022-08-11T18:00:30;3.20;;;1.50;;
68126;SDS011;54931;52.098;21.006;2022-08-11T18:02:58;4.10;;;1.70;;
68126;SDS011;54931;52.098;21.006;2022-08-11T18:05:46;6.30;;;1.90;;
68126;SDS011;54931;52.098;21.006;2022-08-11T18:08:15;4.40;;;1.70;;
68126;SDS011;54931;52.098;21.006;2022-08-11T18:11:06;5.10;;;2.20;;
68126;SDS011;54931;52.098;21.006;2022-08-11T18:13:54;4.30;;;2.30;;
68126;SDS011;54931;52.098;21.006;2022-08-11T18:16:41;3.80;;;2.20;;
68126;SDS011;54931;52.098;21.006;2022-08-11T18:19:28;2.80;;;1.80;;
68126;SDS011;54931;52.098;21.006;2022-08-11T18:25:23;4.30;;;1.80;;
68126;SDS011;54931;52.098;21.006;2022-08-11T18:28:14;5.70;;;1.90;;
68126;SDS011;54931;52.098;21.006;2022-08-11T18:31:07;2.80;;;2.00;;
68126;SDS011;54931;52.098;21.006;2022-08-11T18:33:57;4.80;;;2.40;;
68126;SDS011;54931;52.098;21.006;2022-08-11T18:37:03;4.40;;;2.40;;
68126;SDS011;54931;52.098;21.006;2022-08-11T18:40:01;4.30;;;2.60;;
68126;SDS011;54931;52.098;21.006;2022-08-11T18:42:54;5.20;;;2.50;;
68126;SDS011;54931;52.098;21.006;2022-08-11T18:45:46;4.80;;;2.40;;
68126;SDS011;54931;52.098;21.006;2022-08-11T18:48:38;7.30;;;2.50;;
68126;SDS011;54931;52.098;21.006;2022-08-11T18:51:32;4.90;;;2.50;;
68126;SDS011;54931;52.098;21.006;2022-08-11T18:54:21;6.10;;;2.40;;
68126;SDS011;54931;52.098;21.006;2022-08-11T18:57:12;6.60;;;2.60;;
68126;SDS011;54931;52.098;21.006;2022-08-11T19:00:01;4.90;;;2.60;;
68126;SDS011;54931;52.098;21.006;2022-08-11T19:02:48;6.90;;;2.90;;
68126;SDS011;54931;52.098;21.006;2022-08-11T19:05:36;5.40;;;2.80;;
68126;SDS011;54931;52.098;21.006;2022-08-11T19:08:39;7.30;;;3.00;;
68126;SDS011;54931;52.098;21.006;2022-08-11T19:11:28;4.60;;;2.80;;
68126;SDS011;54931;52.098;21.006;2022-08-11T19:14:17;5.70;;;3.10;;
68126;SDS011;54931;52.098;21.006;2022-08-11T19:17:06;5.80;;;3.00;;
68126;SDS011;54931;52.098;21.006;2022-08-11T19:19:55;6.60;;;2.90;;
68126;SDS011;54931;52.098;21.006;2022-08-11T19:22:43;4.30;;;3.10;;
68126;SDS011;54931;52.098;21.006;2022-08-11T19:25:32;7.80;;;3.10;;
68126;SDS011;54931;52.098;21.006;2022-08-11T19:28:21;4.10;;;2.90;;
68126;SDS011;54931;52.098;21.006;2022-08-11T19:31:09;6.50;;;2.90;;
68126;SDS011;54931;52.098;21.006;2022-08-11T19:33:57;5.40;;;2.90;;
68126;SDS011;54931;52.098;21.006;2022-08-11T19:36:45;5.80;;;2.90;;
68126;SDS011;54931;52.098;21.006;2022-08-11T19:39:33;5.10;;;3.10;;
68126;SDS011;54931;52.098;21.006;2022-08-11T19:42:21;8.00;;;3.30;;
68126;SDS011;54931;52.098;21.006;2022-08-11T19:45:08;6.30;;;3.60;;
68126;SDS011;54931;52.098;21.006;2022-08-11T19:47:55;7.10;;;3.50;;
68126;SDS011;54931;52.098;21.006;2022-08-11T19:50:42;6.50;;;3.70;;
68126;SDS011;54931;52.098;21.006;2022-08-11T19:53:29;6.70;;;4.00;;
68126;SDS011;54931;52.098;21.006;2022-08-11T19:56:17;6.50;;;4.20;;
68126;SDS011;54931;52.098;21.006;2022-08-11T19:59:04;5.70;;;4.60;;
68126;SDS011;54931;52.098;21.006;2022-08-11T20:01:52;11.30;;;4.30;;